createdAt,value
2022-10-19T00:00:14.122Z,24.03
2022-10-19T00:05:16.965Z,24.37
2022-10-19T00:10:19.310Z,24.60
2022-10-19T00:15:21.626Z,25.47
2022-10-19T00:20:23.984Z,24.67
2022-10-19T00:25:26.297Z,26.37
2022-10-19T00:30:28.612Z,24.23
2022-10-19T00:35:31.002Z,24.13
2022-10-19T00:40:40.129Z,24.77
2022-10-19T00:45:42.658Z,23.50
2022-10-19T00:50:46.040Z,23.40
2022-10-19T00:55:48.589Z,21.20
2022-10-19T01:00:50.982Z,20.90
2022-10-19T01:05:53.632Z,20.63
2022-10-19T01:11:23.074Z,20.07
2022-10-19T01:16:37.253Z,20.57
2022-10-19T01:21:49.276Z,20.93
2022-10-19T01:26:54.377Z,18.47
2022-10-19T01:32:08.739Z,19.37
2022-10-19T01:37:28.402Z,19.80
2022-10-19T01:42:46.762Z,18.43
2022-10-19T01:47:54.258Z,17.33
2022-10-19T01:52:57.803Z,16.17
2022-10-19T01:58:09.555Z,15.73
2022-10-19T02:03:13.356Z,15.03
2022-10-19T02:08:22.285Z,17.00
2022-10-19T02:13:26.547Z,17.00
2022-10-19T02:18:34.208Z,17.50
2022-10-19T02:23:36.650Z,16.67
2022-10-19T02:28:39.605Z,15.07
2022-10-19T02:33:42.110Z,15.90
2022-10-19T02:38:44.785Z,14.63
2022-10-19T02:43:53.086Z,14.70
2022-10-19T02:48:56.719Z,13.87
2022-10-19T02:54:01.278Z,12.20
2022-10-19T02:59:06.607Z,11.10
2022-10-19T03:04:08.971Z,12.83
2022-10-19T03:09:11.376Z,11.30
2022-10-19T03:14:13.704Z,9.83
2022-10-19T03:19:16.035Z,9.87
2022-10-19T03:24:18.325Z,9.60
2022-10-19T03:29:20.635Z,8.20
2022-10-19T03:34:23.031Z,8.63
2022-10-19T03:39:25.840Z,8.73
2022-10-19T03:44:28.197Z,8.60
2022-10-19T03:49:30.577Z,7.73
2022-10-19T03:54:32.874Z,8.53
2022-10-19T03:59:35.205Z,7.17
2022-10-19T04:04:37.630Z,7.03
2022-10-19T04:09:39.974Z,7.57
2022-10-19T04:14:56.401Z,7.03
2022-10-19T04:19:59.890Z,6.90
2022-10-19T04:25:02.312Z,6.17
2022-10-19T04:30:05.278Z,6.43
2022-10-19T04:35:08.012Z,6.40
2022-10-19T04:40:14.890Z,6.87
2022-10-19T04:45:26.080Z,5.90
2022-10-19T04:50:28.442Z,6.70
2022-10-19T04:55:31.211Z,5.47
2022-10-19T05:00:33.642Z,5.70
2022-10-19T05:05:36.052Z,5.43
2022-10-19T05:10:44.318Z,5.47
2022-10-19T05:16:04.415Z,5.50
2022-10-19T05:21:09.897Z,4.83
2022-10-19T05:26:17.702Z,5.10
2022-10-19T05:31:21.110Z,5.57
2022-10-19T05:36:26.662Z,5.40
2022-10-19T05:41:29.303Z,5.03
2022-10-19T05:46:32.900Z,5.17
2022-10-19T05:51:35.292Z,5.30
2022-10-19T05:56:38.241Z,5.23
2022-10-19T06:01:40.689Z,4.70
2022-10-19T06:06:43.573Z,4.90
2022-10-19T06:11:46.065Z,4.87
2022-10-19T06:16:48.413Z,4.23
2022-10-19T06:21:50.799Z,4.63
2022-10-19T06:26:53.233Z,5.33
2022-10-19T06:31:56.432Z,4.63
2022-10-19T06:36:58.846Z,4.87
2022-10-19T06:42:01.300Z,4.60
2022-10-19T06:47:03.974Z,4.13
2022-10-19T06:52:07.702Z,3.80
2022-10-19T06:57:10.195Z,3.80
2022-10-19T07:02:13.119Z,3.90
2022-10-19T07:07:15.528Z,2.87
2022-10-19T07:12:17.997Z,3.20
2022-10-19T07:17:20.385Z,2.70
2022-10-19T07:22:27.221Z,2.77
2022-10-19T07:27:34.033Z,3.23
2022-10-19T07:32:43.169Z,3.23
2022-10-19T07:37:49.097Z,3.53
2022-10-19T07:42:51.463Z,3.77
2022-10-19T07:47:54.002Z,3.30
2022-10-19T07:52:56.497Z,3.50
2022-10-19T07:58:01.657Z,3.70
2022-10-19T08:03:57.539Z,4.17
2022-10-19T08:08:26.831Z,3.90
2022-10-19T08:13:29.289Z,4.50
2022-10-19T08:23:35.155Z,3.50
2022-10-19T08:28:37.601Z,2.93
2022-10-19T08:33:40.485Z,3.10
2022-10-19T08:38:44.847Z,2.87
2022-10-19T08:44:09.358Z,3.37
2022-10-19T08:49:18.950Z,3.20
2022-10-19T08:54:21.771Z,3.03
2022-10-19T08:59:38.216Z,3.03
2022-10-19T09:04:42.852Z,2.43
2022-10-19T09:09:51.441Z,2.47
2022-10-19T09:15:01.548Z,2.43
2022-10-19T09:20:22.400Z,2.13
2022-10-19T09:25:26.085Z,2.53
2022-10-19T09:30:30.262Z,2.67
2022-10-19T09:35:39.489Z,2.40
2022-10-19T09:40:41.873Z,2.97
2022-10-19T09:46:00.884Z,2.30
2022-10-19T09:51:12.233Z,2.40
2022-10-19T09:56:26.226Z,2.40
2022-10-19T10:01:40.216Z,2.33
2022-10-19T10:06:48.264Z,1.90
2022-10-19T10:11:51.984Z,2.07
2022-10-19T10:17:03.679Z,2.30
2022-10-19T10:22:25.133Z,2.13
2022-10-19T10:27:39.161Z,2.17
2022-10-19T10:32:54.319Z,2.10
2022-10-19T10:38:18.445Z,2.07
2022-10-19T10:43:27.607Z,1.80
2022-10-19T10:48:58.952Z,2.30
2022-10-19T10:54:16.352Z,2.33
2022-10-19T10:59:26.533Z,1.73
2022-10-19T11:04:39.362Z,1.77
2022-10-19T11:10:09.775Z,1.67
2022-10-19T11:15:21.549Z,1.90
2022-10-19T11:20:30.109Z,1.70
2022-10-19T11:25:47.170Z,1.47
2022-10-19T11:30:57.277Z,0.80
2022-10-19T11:36:03.914Z,0.60
2022-10-19T11:41:17.305Z,0.87
2022-10-19T11:46:52.992Z,0.60
2022-10-19T11:52:07.520Z,0.90
2022-10-19T11:57:20.472Z,1.00
2022-10-19T12:02:40.860Z,0.80
2022-10-19T12:07:52.301Z,0.73
2022-10-19T12:13:02.908Z,0.53
2022-10-19T12:18:17.831Z,0.60
2022-10-19T12:23:33.010Z,0.60
2022-10-19T12:28:39.028Z,2.10
2022-10-19T12:34:04.817Z,4.50
2022-10-19T12:39:20.618Z,2.40
2022-10-19T12:44:52.723Z,6.80
2022-10-19T12:49:58.681Z,5.03
2022-10-19T12:55:16.203Z,6.20
2022-10-19T13:00:24.488Z,2.43
2022-10-19T13:05:29.290Z,5.83
2022-10-19T13:10:33.321Z,1.47
2022-10-19T13:15:35.979Z,0.80
2022-10-19T13:20:38.246Z,1.00
2022-10-19T13:25:41.318Z,8.97
2022-10-19T13:30:46.703Z,4.80
2022-10-19T13:35:49.672Z,9.33
2022-10-19T13:40:51.993Z,2.77
2022-10-19T13:46:12.368Z,2.30
2022-10-19T13:51:45.718Z,3.50
2022-10-19T13:57:16.298Z,1.67
2022-10-19T14:02:51.186Z,1.57
2022-10-19T14:08:23.838Z,6.23
2022-10-19T14:13:27.178Z,19.57
2022-10-19T14:18:35.530Z,63.70
2022-10-19T14:23:42.796Z,8.83
2022-10-19T14:28:45.676Z,29.67
2022-10-19T14:33:51.935Z,16.87
2022-10-19T14:38:56.312Z,14.30
2022-10-19T14:44:00.487Z,8.60
2022-10-19T14:49:06.423Z,5.97
2022-10-19T14:54:14.660Z,23.83
2022-10-19T14:59:34.946Z,16.07
2022-10-19T15:04:38.749Z,12.37
2022-10-19T15:09:50.196Z,6.77
2022-10-19T15:14:53.884Z,7.13
2022-10-19T15:20:01.078Z,11.67
2022-10-19T15:25:06.877Z,5.77
2022-10-19T15:30:18.561Z,7.63
2022-10-19T15:35:31.009Z,11.50
2022-10-19T15:40:35.557Z,12.40
2022-10-19T15:45:39.682Z,11.43
2022-10-19T15:50:49.926Z,50.67
2022-10-19T15:55:52.426Z,137.93
2022-10-19T16:00:54.888Z,156.63
2022-10-19T16:05:57.372Z,60.03
2022-10-19T16:11:00.241Z,34.53
2022-10-19T16:16:11.350Z,64.63
2022-10-19T16:21:14.509Z,67.33
2022-10-19T16:26:17.755Z,87.00
2022-10-19T16:31:20.983Z,38.43
2022-10-19T16:36:23.524Z,40.30
2022-10-19T16:41:25.955Z,36.60
2022-10-19T16:46:28.593Z,33.83
2022-10-19T16:51:37.779Z,38.93
2022-10-19T16:56:48.178Z,60.20
2022-10-19T17:01:50.762Z,55.07
2022-10-19T17:06:53.275Z,44.40
2022-10-19T17:11:55.896Z,36.43
2022-10-19T17:16:58.323Z,36.17
2022-10-19T17:22:02.200Z,35.90
2022-10-19T17:27:04.650Z,30.17
2022-10-19T17:32:07.244Z,26.33
2022-10-19T17:37:09.648Z,21.87
2022-10-19T17:42:12.072Z,24.90
2022-10-19T17:47:14.457Z,23.17
2022-10-19T17:52:16.828Z,22.57
2022-10-19T17:57:19.218Z,18.00
2022-10-19T18:02:21.835Z,18.97
2022-10-19T18:07:25.700Z,32.93
2022-10-19T18:12:28.080Z,66.07
2022-10-19T18:17:30.525Z,44.67
2022-10-19T18:22:32.981Z,29.50
2022-10-19T18:27:35.676Z,30.17
2022-10-19T18:32:38.344Z,20.53
2022-10-19T18:37:40.758Z,25.43
2022-10-19T18:42:43.536Z,16.97
2022-10-19T18:47:46.069Z,15.50
2022-10-19T18:52:48.506Z,17.67
2022-10-19T18:57:50.907Z,22.00
2022-10-19T19:02:56.530Z,39.67
2022-10-19T19:07:59.021Z,56.73
2022-10-19T19:13:01.380Z,62.40
2022-10-19T19:18:04.558Z,44.93
2022-10-19T19:23:07.061Z,48.77
2022-10-19T19:28:09.503Z,97.93
2022-10-19T19:33:13.315Z,66.87
2022-10-19T19:38:16.670Z,62.60
2022-10-19T19:43:20.143Z,46.50
2022-10-19T19:48:23.415Z,42.87
2022-10-19T19:53:25.878Z,33.50
2022-10-19T19:58:28.287Z,35.73
2022-10-19T20:03:33.307Z,60.37
2022-10-19T20:08:36.966Z,45.63
2022-10-19T20:13:39.987Z,40.63
2022-10-19T20:18:45.404Z,40.40
2022-10-19T20:23:48.165Z,44.67
2022-10-19T20:28:51.221Z,66.03
2022-10-19T20:33:53.731Z,62.00
2022-10-19T20:38:57.742Z,57.37
2022-10-19T20:44:00.199Z,45.37
2022-10-19T20:49:03.624Z,42.20
2022-10-19T20:54:09.703Z,62.00
2022-10-19T20:59:17.575Z,55.37
2022-10-19T21:04:20.068Z,57.00
2022-10-19T21:09:23.498Z,73.63
2022-10-19T21:14:28.949Z,69.07
2022-10-19T21:19:32.080Z,80.67
2022-10-19T21:24:36.369Z,60.47
2022-10-19T21:29:38.909Z,61.30
2022-10-19T21:34:41.327Z,61.30
2022-10-19T21:39:43.708Z,56.70
2022-10-19T21:44:46.087Z,57.67
2022-10-19T21:49:48.790Z,54.70
2022-10-19T21:54:51.280Z,61.83
2022-10-19T21:59:53.660Z,61.00
2022-10-19T22:04:56.066Z,60.70
2022-10-19T22:09:58.446Z,62.97
2022-10-19T22:15:00.803Z,66.43
2022-10-19T22:20:03.680Z,73.40
2022-10-19T22:25:06.264Z,74.77
2022-10-19T22:30:08.880Z,75.57
2022-10-19T22:35:11.218Z,44.00
2022-10-19T22:40:13.867Z,38.33
2022-10-19T22:45:16.416Z,35.60
2022-10-19T22:50:18.808Z,32.20
2022-10-19T22:55:21.194Z,34.43
2022-10-19T23:00:23.837Z,38.17
2022-10-19T23:05:26.234Z,34.50
2022-10-19T23:10:28.648Z,32.03
2022-10-19T23:15:31.072Z,26.03
2022-10-19T23:20:33.470Z,28.67
2022-10-19T23:25:35.964Z,29.47
2022-10-19T23:30:38.353Z,27.33
2022-10-19T23:35:40.725Z,27.67
2022-10-19T23:40:44.490Z,27.80
2022-10-19T23:45:46.862Z,30.57
2022-10-19T23:51:01.531Z,26.93
2022-10-19T23:56:16.893Z,29.10
